createdAt,value
2022-11-25T00:00:10.204Z,3.47
2022-11-25T00:02:48.314Z,3.39
2022-11-25T00:05:20.421Z,3.33
2022-11-25T00:07:51.481Z,3.39
2022-11-25T00:10:24.710Z,3.33
2022-11-25T00:12:56.545Z,3.53
2022-11-25T00:15:31.429Z,3.50
2022-11-25T00:18:04.845Z,3.61
2022-11-25T00:20:35.912Z,3.58
2022-11-25T00:23:09.502Z,3.52
2022-11-25T00:25:45.414Z,3.59
2022-11-25T00:28:19.723Z,3.48
2022-11-25T00:30:54.835Z,3.58
2022-11-25T00:33:27.124Z,3.60
2022-11-25T00:35:57.913Z,3.54
2022-11-25T00:38:28.692Z,3.50
2022-11-25T00:41:11.877Z,3.48
2022-11-25T00:43:58.232Z,3.43
2022-11-25T00:46:31.466Z,3.40
2022-11-25T00:49:02.613Z,3.40
2022-11-25T00:51:38.989Z,3.51
2022-11-25T00:54:10.327Z,3.52
2022-11-25T00:56:42.518Z,3.46
2022-11-25T00:59:17.668Z,3.55
2022-11-25T01:01:51.663Z,3.54
2022-11-25T01:04:22.504Z,3.59
2022-11-25T01:06:54.385Z,3.52
2022-11-25T01:09:28.296Z,3.56
2022-11-25T01:11:59.888Z,3.61
2022-11-25T01:14:30.713Z,3.49
2022-11-25T01:17:08.575Z,3.51
2022-11-25T01:19:40.797Z,3.46
2022-11-25T01:22:13.354Z,3.43
2022-11-25T01:24:46.745Z,3.49
2022-11-25T01:27:18.245Z,3.36
2022-11-25T01:29:49.547Z,3.33
2022-11-25T01:32:23.704Z,3.28
2022-11-25T01:34:54.621Z,3.34
2022-11-25T01:37:26.526Z,3.37
2022-11-25T01:39:57.563Z,3.29
2022-11-25T01:42:32.762Z,3.15
2022-11-25T01:45:54.292Z,3.10
2022-11-25T01:49:00.924Z,3.02
2022-11-25T01:52:09.146Z,3.12
2022-11-25T01:54:46.547Z,3.03
2022-11-25T01:57:24.484Z,2.94
2022-11-25T02:00:04.264Z,2.91
2022-11-25T02:02:57.383Z,2.97
2022-11-25T02:05:46.302Z,3.05
2022-11-25T02:08:22.413Z,2.94
2022-11-25T02:10:58.447Z,2.93
2022-11-25T02:13:29.902Z,2.81
2022-11-25T02:16:05.072Z,2.79
2022-11-25T02:18:37.668Z,2.84
2022-11-25T02:21:18.504Z,2.79
2022-11-25T02:23:56.566Z,2.69
2022-11-25T02:26:30.424Z,2.76
2022-11-25T02:29:02.345Z,2.74
2022-11-25T02:31:34.347Z,2.75
2022-11-25T02:34:05.822Z,2.65
2022-11-25T02:36:38.343Z,2.54
2022-11-25T02:39:10.793Z,2.54
2022-11-25T02:41:47.159Z,2.43
2022-11-25T02:44:21.873Z,2.49
2022-11-25T02:46:52.631Z,2.45
2022-11-25T02:49:24.161Z,2.36
2022-11-25T02:51:55.739Z,2.31
2022-11-25T02:54:28.205Z,2.36
2022-11-25T02:57:01.283Z,2.47
2022-11-25T02:59:34.906Z,2.51
2022-11-25T03:02:05.813Z,2.66
2022-11-25T03:04:38.156Z,2.49
2022-11-25T03:07:10.020Z,2.60
2022-11-25T03:09:42.799Z,2.63
2022-11-25T03:12:22.976Z,2.57
2022-11-25T03:14:58.600Z,2.57
2022-11-25T03:17:30.786Z,2.46
2022-11-25T03:20:06.392Z,2.34
2022-11-25T03:22:41.907Z,2.28
2022-11-25T03:25:14.714Z,2.27
2022-11-25T03:27:48.653Z,2.21
2022-11-25T03:30:22.469Z,2.16
2022-11-25T03:32:57.858Z,2.08
2022-11-25T03:35:35.072Z,2.00
2022-11-25T03:38:08.746Z,1.94
2022-11-25T03:40:41.679Z,1.92
2022-11-25T03:43:18.698Z,1.84
2022-11-25T03:45:52.874Z,1.80
2022-11-25T03:48:29.595Z,1.74
2022-11-25T03:51:02.689Z,1.71
2022-11-25T03:53:35.127Z,1.68
2022-11-25T03:56:09.953Z,1.68
2022-11-25T03:58:44.722Z,1.67
2022-11-25T04:01:16.706Z,1.76
2022-11-25T04:03:50.805Z,1.75
2022-11-25T04:06:26.980Z,1.77
2022-11-25T04:08:59.658Z,1.77
2022-11-25T04:11:52.754Z,1.75
2022-11-25T04:14:28.128Z,1.84
2022-11-25T04:16:59.105Z,1.82
2022-11-25T04:19:30.628Z,1.75
2022-11-25T04:22:03.201Z,1.75
2022-11-25T04:24:38.104Z,1.70
2022-11-25T04:27:09.651Z,1.63
2022-11-25T04:29:48.961Z,1.56
2022-11-25T04:32:24.103Z,1.52
2022-11-25T04:34:59.088Z,1.56
2022-11-25T04:37:36.816Z,1.68
2022-11-25T04:40:10.977Z,1.70
2022-11-25T04:42:42.475Z,1.74
2022-11-25T04:45:45.373Z,1.79
2022-11-25T04:48:23.208Z,1.78
2022-11-25T04:50:58.242Z,1.78
2022-11-25T04:53:32.152Z,1.79
2022-11-25T04:56:07.989Z,1.97
2022-11-25T04:58:59.748Z,1.88
2022-11-25T05:01:38.819Z,1.97
2022-11-25T05:04:35.460Z,2.08
2022-11-25T05:07:10.271Z,2.23
2022-11-25T05:09:44.805Z,2.23
2022-11-25T05:12:43.308Z,2.25
2022-11-25T05:15:28.183Z,2.25
2022-11-25T05:18:02.915Z,2.21
2022-11-25T05:21:06.889Z,2.27
2022-11-25T05:23:55.569Z,2.16
2022-11-25T05:26:27.946Z,2.22
2022-11-25T05:29:03.037Z,2.05
2022-11-25T05:31:41.630Z,2.01
2022-11-25T05:34:27.046Z,1.99
2022-11-25T05:37:00.094Z,2.08
2022-11-25T05:39:36.459Z,2.01
2022-11-25T05:42:45.897Z,1.86
2022-11-25T05:45:19.746Z,1.82
2022-11-25T05:47:50.724Z,1.73
2022-11-25T05:50:35.495Z,1.74
2022-11-25T05:53:29.541Z,1.69
2022-11-25T05:56:03.920Z,1.74
2022-11-25T05:58:58.789Z,1.59
2022-11-25T06:01:41.303Z,1.56
2022-11-25T06:04:18.428Z,1.53
2022-11-25T06:06:57.745Z,1.51
2022-11-25T06:09:36.270Z,1.48
2022-11-25T06:12:08.743Z,1.44
2022-11-25T06:14:46.696Z,1.40
2022-11-25T06:17:21.826Z,1.41
2022-11-25T06:20:06.925Z,1.37
2022-11-25T06:22:49.144Z,1.37
2022-11-25T06:25:34.454Z,1.32
2022-11-25T06:28:13.087Z,1.27
2022-11-25T06:30:49.533Z,1.24
2022-11-25T06:33:29.692Z,1.19
2022-11-25T06:36:14.657Z,1.08
2022-11-25T06:38:54.100Z,1.04
2022-11-25T06:41:25.877Z,1.04
2022-11-25T06:43:57.684Z,1.02
2022-11-25T06:46:28.168Z,1.02
2022-11-25T06:49:02.739Z,1.06
2022-11-25T06:51:33.675Z,1.08
2022-11-25T06:54:13.417Z,1.10
2022-11-25T06:56:44.649Z,1.14
2022-11-25T06:59:15.783Z,1.18
2022-11-25T07:01:48.138Z,1.21
2022-11-25T07:04:18.711Z,1.18
2022-11-25T07:06:52.437Z,1.24
2022-11-25T07:09:26.893Z,1.29
2022-11-25T07:11:58.395Z,1.29
2022-11-25T07:14:29.653Z,1.33
2022-11-25T07:17:01.778Z,1.40
2022-11-25T07:19:35.679Z,1.49
2022-11-25T07:22:06.114Z,1.63
2022-11-25T07:24:39.952Z,1.69
2022-11-25T07:27:11.314Z,1.73
2022-11-25T07:30:03.242Z,1.84
2022-11-25T07:32:35.957Z,1.92
2022-11-25T07:35:07.101Z,2.12
2022-11-25T07:37:37.507Z,2.24
2022-11-25T07:40:13.070Z,2.29
2022-11-25T07:42:43.811Z,2.44
2022-11-25T07:45:14.606Z,2.49
2022-11-25T07:47:50.162Z,2.59
2022-11-25T07:50:22.160Z,2.70
2022-11-25T07:52:54.322Z,2.81
2022-11-25T07:55:28.598Z,2.86
2022-11-25T07:58:03.144Z,2.96
2022-11-25T08:00:34.932Z,3.10
2022-11-25T08:03:05.761Z,3.14
2022-11-25T08:05:39.506Z,3.23
2022-11-25T08:08:10.053Z,3.28
2022-11-25T08:10:50.819Z,3.35
2022-11-25T08:13:22.659Z,3.37
2022-11-25T08:15:55.228Z,3.42
2022-11-25T08:18:26.256Z,3.51
2022-11-25T08:21:02.574Z,3.69
2022-11-25T08:23:33.217Z,3.73
2022-11-25T08:26:10.733Z,3.90
2022-11-25T08:28:41.891Z,3.89
2022-11-25T08:31:15.087Z,4.06
2022-11-25T08:33:46.049Z,4.26
2022-11-25T08:36:19.917Z,4.28
2022-11-25T08:38:51.093Z,4.45
2022-11-25T08:41:27.416Z,4.40
2022-11-25T08:44:02.789Z,4.53
2022-11-25T08:46:38.008Z,4.58
2022-11-25T08:49:11.448Z,4.66
2022-11-25T08:51:43.553Z,4.78
2022-11-25T08:54:17.287Z,5.04
2022-11-25T08:56:52.097Z,5.01
2022-11-25T08:59:30.883Z,5.07
2022-11-25T09:02:02.374Z,4.98
2022-11-25T09:04:33.159Z,5.26
2022-11-25T09:07:09.717Z,5.45
2022-11-25T09:09:40.729Z,5.81
2022-11-25T09:12:19.101Z,5.88
2022-11-25T09:14:49.891Z,6.07
2022-11-25T09:17:21.445Z,6.00
2022-11-25T09:19:52.883Z,6.01
2022-11-25T09:22:24.153Z,5.93
2022-11-25T09:24:54.705Z,6.05
2022-11-25T09:27:28.712Z,6.29
2022-11-25T09:29:59.356Z,6.39
2022-11-25T09:32:30.764Z,6.32
2022-11-25T09:35:02.754Z,6.38
2022-11-25T09:37:39.412Z,6.38
2022-11-25T09:40:19.971Z,6.56
2022-11-25T09:43:13.042Z,6.79
2022-11-25T09:46:06.178Z,6.79
2022-11-25T09:48:54.652Z,6.86
2022-11-25T09:51:30.975Z,7.00
2022-11-25T09:54:16.357Z,7.11
2022-11-25T09:56:54.543Z,7.30
2022-11-25T09:59:35.541Z,7.19
2022-11-25T10:02:16.848Z,7.20
2022-11-25T10:04:56.791Z,7.17
2022-11-25T10:07:34.280Z,7.19
2022-11-25T10:10:11.573Z,7.33
2022-11-25T10:12:46.839Z,7.40
2022-11-25T10:15:24.229Z,7.36
2022-11-25T10:17:57.266Z,7.25
2022-11-25T10:20:33.771Z,7.49
2022-11-25T10:23:06.575Z,7.48
2022-11-25T10:25:44.483Z,7.55
2022-11-25T10:28:21.104Z,7.49
2022-11-25T10:31:05.005Z,7.38
2022-11-25T10:33:41.050Z,7.48
2022-11-25T10:36:18.901Z,7.62
2022-11-25T10:38:58.839Z,7.72
2022-11-25T10:41:35.247Z,7.68
2022-11-25T10:44:07.437Z,7.79
2022-11-25T10:47:13.538Z,7.75
2022-11-25T10:49:55.142Z,7.84
2022-11-25T10:52:26.739Z,7.93
2022-11-25T10:55:12.448Z,8.00
2022-11-25T10:57:43.868Z,8.06
2022-11-25T11:00:36.796Z,8.06
2022-11-25T11:03:29.144Z,8.22
2022-11-25T11:06:00.544Z,8.04
2022-11-25T11:08:40.320Z,8.12
2022-11-25T11:11:20.573Z,8.27
2022-11-25T11:13:51.995Z,8.30
2022-11-25T11:16:36.905Z,8.15
2022-11-25T11:19:24.243Z,8.18
2022-11-25T11:21:55.726Z,8.22
2022-11-25T11:24:40.194Z,8.06
2022-11-25T11:27:26.234Z,7.95
2022-11-25T11:30:20.875Z,7.93
2022-11-25T11:33:01.063Z,8.11
2022-11-25T11:35:47.732Z,8.14
2022-11-25T11:38:33.929Z,8.15
2022-11-25T11:41:22.927Z,8.16
2022-11-25T11:44:09.322Z,8.22
2022-11-25T11:46:55.994Z,8.37
2022-11-25T11:49:47.038Z,8.22
2022-11-25T11:52:33.528Z,8.24
2022-11-25T11:55:29.691Z,8.08
2022-11-25T11:58:14.208Z,8.05
2022-11-25T12:00:53.901Z,8.20
2022-11-25T12:03:28.552Z,8.35
2022-11-25T12:06:08.684Z,8.32
2022-11-25T12:08:51.739Z,8.24
2022-11-25T12:11:26.586Z,8.16
2022-11-25T12:14:06.367Z,7.98
2022-11-25T12:16:43.837Z,7.89
2022-11-25T12:19:27.516Z,7.79
2022-11-25T12:22:11.279Z,7.73
2022-11-25T12:24:54.380Z,7.77
2022-11-25T12:27:31.028Z,8.04
2022-11-25T12:30:08.143Z,8.19
2022-11-25T12:33:08.513Z,8.27
2022-11-25T12:35:56.662Z,8.24
2022-11-25T12:38:39.148Z,8.32
2022-11-25T12:41:31.942Z,8.32
2022-11-25T12:44:09.272Z,8.02
2022-11-25T12:46:44.594Z,8.02
2022-11-25T12:49:22.018Z,7.90
2022-11-25T12:52:10.771Z,7.85
2022-11-25T12:55:02.645Z,7.77
2022-11-25T12:58:00.095Z,7.84
2022-11-25T13:00:42.376Z,7.88
2022-11-25T13:03:38.457Z,7.98
2022-11-25T13:06:34.260Z,8.11
2022-11-25T13:09:12.125Z,8.30
2022-11-25T13:12:02.791Z,8.18
2022-11-25T13:14:58.171Z,8.12
2022-11-25T13:17:32.056Z,8.06
2022-11-25T13:20:16.669Z,8.01
2022-11-25T13:22:47.581Z,7.92
2022-11-25T13:25:30.327Z,7.90
2022-11-25T13:28:03.567Z,7.85
2022-11-25T13:30:47.068Z,7.77
2022-11-25T13:33:50.395Z,7.72
2022-11-25T13:36:23.807Z,7.70
2022-11-25T13:39:06.541Z,7.69
2022-11-25T13:41:47.774Z,7.66
2022-11-25T13:44:28.179Z,7.68
2022-11-25T13:47:05.968Z,7.65
2022-11-25T13:49:43.999Z,7.62
2022-11-25T13:52:39.901Z,7.57
2022-11-25T13:55:39.936Z,7.54
2022-11-25T13:58:27.053Z,7.52
2022-11-25T14:01:30.545Z,7.45
2022-11-25T14:04:09.062Z,7.56
2022-11-25T14:07:05.977Z,7.50
2022-11-25T14:09:48.380Z,7.36
2022-11-25T14:12:42.877Z,7.33
2022-11-25T14:15:40.038Z,7.31
2022-11-25T14:21:57.192Z,7.12
2022-11-25T14:24:37.488Z,6.97
2022-11-25T14:27:22.967Z,6.95
2022-11-25T14:29:58.662Z,6.86
2022-11-25T14:32:38.501Z,6.80
2022-11-25T14:35:14.877Z,6.73
2022-11-25T14:37:53.365Z,6.68
2022-11-25T14:40:28.617Z,6.58
2022-11-25T14:43:08.273Z,6.51
2022-11-25T14:45:45.771Z,6.43
2022-11-25T14:48:23.358Z,6.34
2022-11-25T14:51:03.592Z,6.26
2022-11-25T14:53:47.784Z,6.14
2022-11-25T14:56:26.698Z,6.13
2022-11-25T14:59:00.734Z,6.12
2022-11-25T15:01:34.544Z,6.17
2022-11-25T15:04:06.593Z,6.25
2022-11-25T15:06:43.478Z,6.30
2022-11-25T15:09:32.734Z,6.26
2022-11-25T15:12:07.413Z,6.14
2022-11-25T15:14:44.389Z,6.14
2022-11-25T15:17:27.905Z,6.09
2022-11-25T15:20:01.811Z,6.09
2022-11-25T15:22:34.836Z,6.00
2022-11-25T15:25:20.938Z,5.95
2022-11-25T15:27:56.411Z,5.83
2022-11-25T15:30:33.134Z,5.79
2022-11-25T15:33:05.905Z,5.68
2022-11-25T15:35:36.961Z,5.61
2022-11-25T15:38:23.596Z,5.47
2022-11-25T15:41:04.077Z,5.42
2022-11-25T15:43:40.559Z,5.33
2022-11-25T15:46:11.501Z,5.32
2022-11-25T15:48:50.232Z,5.24
2022-11-25T15:51:35.362Z,5.17
2022-11-25T15:54:11.365Z,5.06
2022-11-25T15:56:54.216Z,5.07
2022-11-25T15:59:41.793Z,5.03
2022-11-25T16:02:32.573Z,4.98
2022-11-25T16:05:46.299Z,4.95
2022-11-25T16:08:38.692Z,4.81
2022-11-25T16:11:20.912Z,4.74
2022-11-25T16:13:55.764Z,4.66
2022-11-25T16:16:34.816Z,4.61
2022-11-25T16:19:18.103Z,4.53
2022-11-25T16:22:00.583Z,4.45
2022-11-25T16:25:02.664Z,4.39
2022-11-25T16:27:34.542Z,4.33
2022-11-25T16:30:35.226Z,4.29
2022-11-25T16:33:14.898Z,4.24
2022-11-25T16:35:45.505Z,4.20
2022-11-25T16:38:18.490Z,4.15
2022-11-25T16:41:00.074Z,4.21
2022-11-25T16:43:32.120Z,4.31
2022-11-25T16:46:12.887Z,4.30
2022-11-25T16:48:43.162Z,4.34
2022-11-25T16:51:20.152Z,4.30
2022-11-25T16:53:52.517Z,4.23
2022-11-25T16:56:30.027Z,4.26
2022-11-25T16:59:02.337Z,4.19
2022-11-25T17:01:38.156Z,4.20
2022-11-25T17:04:08.865Z,4.22
2022-11-25T17:06:41.746Z,4.06
2022-11-25T17:09:14.971Z,4.07
2022-11-25T17:11:49.095Z,4.00
2022-11-25T17:14:27.121Z,3.95
2022-11-25T17:17:05.989Z,4.11
2022-11-25T17:19:39.421Z,4.08
2022-11-25T17:22:19.844Z,4.00
2022-11-25T17:24:51.102Z,3.96
2022-11-25T17:27:25.363Z,3.94
2022-11-25T17:29:57.916Z,3.79
2022-11-25T17:32:35.368Z,3.70
2022-11-25T17:35:05.695Z,3.75
2022-11-25T17:37:37.438Z,3.84
2022-11-25T17:40:10.034Z,3.87
2022-11-25T17:42:40.265Z,3.89
2022-11-25T17:45:17.099Z,3.92
2022-11-25T17:47:50.847Z,3.95
2022-11-25T17:50:25.993Z,3.91
2022-11-25T17:52:56.065Z,3.83
2022-11-25T17:55:28.031Z,3.89
2022-11-25T17:58:01.664Z,3.91
2022-11-25T18:00:33.473Z,3.85
2022-11-25T18:03:13.890Z,3.90
2022-11-25T18:05:44.814Z,3.82
2022-11-25T18:08:15.372Z,3.69
2022-11-25T18:10:48.622Z,3.67
2022-11-25T18:13:19.899Z,3.66
2022-11-25T18:15:53.080Z,3.78
2022-11-25T18:18:28.264Z,3.74
2022-11-25T18:21:01.304Z,3.79
2022-11-25T18:23:37.702Z,3.77
2022-11-25T18:26:08.346Z,3.81
2022-11-25T18:28:39.946Z,3.80
2022-11-25T18:31:10.707Z,3.69
2022-11-25T18:33:43.680Z,3.72
2022-11-25T18:36:17.037Z,3.72
2022-11-25T18:38:48.804Z,3.72
2022-11-25T18:41:24.612Z,3.67
2022-11-25T18:43:55.350Z,3.59
2022-11-25T18:46:25.773Z,3.48
2022-11-25T18:49:01.025Z,3.58
2022-11-25T18:51:31.547Z,3.49
2022-11-25T18:54:02.072Z,3.51
2022-11-25T18:56:32.451Z,3.42
2022-11-25T18:59:03.229Z,3.38
2022-11-25T19:01:35.524Z,3.32
2022-11-25T19:04:13.148Z,3.30
2022-11-25T19:06:43.918Z,3.29
2022-11-25T19:09:14.902Z,3.33
2022-11-25T19:11:53.942Z,3.31
2022-11-25T19:14:31.495Z,3.36
2022-11-25T19:17:08.336Z,3.32
2022-11-25T19:19:51.844Z,3.21
2022-11-25T19:22:22.893Z,3.01
2022-11-25T19:24:54.313Z,2.94
2022-11-25T19:27:27.202Z,2.83
2022-11-25T19:29:57.721Z,2.77
2022-11-25T19:32:33.220Z,2.71
2022-11-25T19:35:09.893Z,2.64
2022-11-25T19:37:41.417Z,2.60
2022-11-25T19:40:17.848Z,2.55
2022-11-25T19:42:51.200Z,2.50
2022-11-25T19:45:28.051Z,2.40
2022-11-25T19:48:10.690Z,2.38
2022-11-25T19:50:46.442Z,2.33
2022-11-25T19:53:21.099Z,2.29
2022-11-25T19:55:52.889Z,2.25
2022-11-25T19:58:24.366Z,2.22
2022-11-25T20:00:55.044Z,2.16
2022-11-25T20:03:29.992Z,2.12
2022-11-25T20:06:05.434Z,2.07
2022-11-25T20:08:35.735Z,2.02
2022-11-25T20:11:18.852Z,2.00
2022-11-25T20:13:58.239Z,1.93
2022-11-25T20:16:39.215Z,1.89
2022-11-25T20:19:11.953Z,1.87
2022-11-25T20:21:52.601Z,1.84
2022-11-25T20:24:24.345Z,1.80
2022-11-25T20:26:58.438Z,1.73
2022-11-25T20:29:30.760Z,1.72
2022-11-25T20:32:01.739Z,1.68
2022-11-25T20:34:38.815Z,1.67
2022-11-25T20:37:24.376Z,1.60
2022-11-25T20:39:57.407Z,1.53
2022-11-25T20:42:29.630Z,1.53
2022-11-25T20:45:00.362Z,1.49
2022-11-25T20:47:34.224Z,1.45
2022-11-25T20:50:07.162Z,1.43
2022-11-25T20:52:41.176Z,1.40
2022-11-25T20:55:23.564Z,1.37
2022-11-25T20:57:55.526Z,1.19
2022-11-25T21:00:28.477Z,1.18
2022-11-25T21:03:00.827Z,1.20
2022-11-25T21:05:31.327Z,1.19
2022-11-25T21:08:10.766Z,1.27
2022-11-25T21:10:42.292Z,1.26
2022-11-25T21:13:19.420Z,1.30
2022-11-25T21:15:57.141Z,1.26
2022-11-25T21:18:29.795Z,1.25
2022-11-25T21:21:01.128Z,1.26
2022-11-25T21:23:41.513Z,1.28
2022-11-25T21:26:20.401Z,1.32
2022-11-25T21:28:56.220Z,1.29
2022-11-25T21:31:32.525Z,1.27
2022-11-25T21:34:05.498Z,1.26
2022-11-25T21:36:35.798Z,1.32
2022-11-25T21:39:12.553Z,1.29
2022-11-25T21:41:44.014Z,1.31
2022-11-25T21:44:29.053Z,1.33
2022-11-25T21:46:59.793Z,1.29
2022-11-25T21:49:31.166Z,1.31
2022-11-25T21:52:01.664Z,1.32
2022-11-25T21:54:36.375Z,1.34
2022-11-25T21:57:07.136Z,1.35
2022-11-25T21:59:37.592Z,1.37
2022-11-25T22:02:18.920Z,1.39
2022-11-25T22:04:49.843Z,1.40
2022-11-25T22:07:20.422Z,1.41
2022-11-25T22:09:54.105Z,1.44
2022-11-25T22:12:34.356Z,1.42
2022-11-25T22:15:13.399Z,1.39
2022-11-25T22:17:43.767Z,1.41
2022-11-25T22:20:37.065Z,1.40
2022-11-25T22:23:17.464Z,1.41
2022-11-25T22:25:55.471Z,1.43
2022-11-25T22:28:29.032Z,1.45
2022-11-25T22:31:04.563Z,1.48
2022-11-25T22:33:37.550Z,1.49
2022-11-25T22:36:10.632Z,1.47
2022-11-25T22:38:41.057Z,1.41
2022-11-25T22:41:16.270Z,1.33
2022-11-25T22:43:52.589Z,1.29
2022-11-25T22:46:23.549Z,1.28
2022-11-25T22:48:56.208Z,1.22
2022-11-25T22:51:34.361Z,1.20
2022-11-25T22:54:04.925Z,1.23
2022-11-25T22:56:43.435Z,1.23
2022-11-25T22:59:14.499Z,1.26
2022-11-25T23:01:52.232Z,1.28
2022-11-25T23:04:23.909Z,1.24
2022-11-25T23:07:00.517Z,1.29
2022-11-25T23:09:32.670Z,1.34
2022-11-25T23:12:12.403Z,1.31
2022-11-25T23:14:45.321Z,1.18
2022-11-25T23:17:22.478Z,1.17
2022-11-25T23:19:54.067Z,1.18
2022-11-25T23:22:36.025Z,1.16
2022-11-25T23:25:19.109Z,1.12
2022-11-25T23:27:52.484Z,1.10
2022-11-25T23:30:24.403Z,1.17
2022-11-25T23:32:57.667Z,1.16
2022-11-25T23:35:33.958Z,1.06
2022-11-25T23:38:04.584Z,0.94
2022-11-25T23:40:37.536Z,1.12
2022-11-25T23:43:15.262Z,1.12
2022-11-25T23:45:51.751Z,1.12
2022-11-25T23:48:24.173Z,1.09
2022-11-25T23:50:57.820Z,1.03
2022-11-25T23:53:32.670Z,1.09
2022-11-25T23:56:03.039Z,1.12
2022-11-25T23:58:36.163Z,1.08
